createdAt,value
2022-12-14T00:02:01.344Z,97458.72
2022-12-14T00:04:29.267Z,97454.00
2022-12-14T00:06:57.120Z,97437.00
2022-12-14T00:09:25.304Z,97429.56
2022-12-14T00:11:53.138Z,97427.47
2022-12-14T00:14:21.131Z,97419.75
2022-12-14T00:16:50.403Z,97411.88
2022-12-14T00:19:18.347Z,97413.59
2022-12-14T00:21:46.620Z,97415.13
2022-12-14T00:24:14.511Z,97415.03
2022-12-14T00:26:42.381Z,97418.25
2022-12-14T00:29:10.250Z,97413.28
2022-12-14T00:31:38.346Z,97409.94
2022-12-14T00:34:07.701Z,97389.91
2022-12-14T00:36:37.628Z,97390.47
2022-12-14T00:39:06.161Z,97393.13
2022-12-14T00:41:36.376Z,97394.09
2022-12-14T00:44:04.385Z,97394.16
2022-12-14T00:46:32.332Z,97382.03
2022-12-14T00:49:00.453Z,97393.53
2022-12-14T00:51:29.778Z,97390.84
2022-12-14T00:53:57.737Z,97391.91
2022-12-14T00:56:25.624Z,97402.06
2022-12-14T00:58:54.015Z,97397.31
2022-12-14T01:01:22.409Z,97396.56
2022-12-14T01:03:51.186Z,97397.44
2022-12-14T01:06:21.646Z,97378.72
2022-12-14T01:08:51.181Z,97373.22
2022-12-14T01:11:21.667Z,97376.44
2022-12-14T01:13:49.844Z,97391.53
2022-12-14T01:16:18.209Z,97401.78
2022-12-14T01:18:46.294Z,97399.94
2022-12-14T01:21:16.719Z,97385.81
2022-12-14T01:23:45.610Z,97391.41
2022-12-14T01:26:16.271Z,97387.00
2022-12-14T01:28:45.800Z,97382.56
2022-12-14T01:31:18.641Z,97380.22
2022-12-14T01:33:47.151Z,97389.69
2022-12-14T01:36:17.117Z,97393.69
2022-12-14T01:38:45.476Z,97391.22
2022-12-14T01:41:23.232Z,97387.41
2022-12-14T01:43:53.153Z,97401.06
2022-12-14T01:46:27.181Z,97398.78
2022-12-14T01:49:01.546Z,97390.31
2022-12-14T01:51:31.170Z,97385.66
2022-12-14T01:54:02.881Z,97369.69
2022-12-14T01:56:35.749Z,97357.66
2022-12-14T01:59:09.027Z,97357.72
2022-12-14T02:01:37.484Z,97346.47
2022-12-14T02:04:06.190Z,97348.41
2022-12-14T02:06:36.429Z,97362.22
2022-12-14T02:09:05.809Z,97360.06
2022-12-14T02:11:45.223Z,97353.03
2022-12-14T02:14:13.350Z,97348.81
2022-12-14T02:16:42.303Z,97350.78
2022-12-14T02:19:10.425Z,97351.16
2022-12-14T02:21:59.794Z,97353.34
2022-12-14T02:24:57.854Z,97341.47
2022-12-14T02:27:56.752Z,97325.66
2022-12-14T02:30:28.354Z,97327.56
2022-12-14T02:33:10.720Z,97329.56
2022-12-14T02:35:46.172Z,97333.16
2022-12-14T02:38:31.169Z,97327.56
2022-12-14T02:41:08.564Z,97329.94
2022-12-14T02:43:51.025Z,97331.84
2022-12-14T02:46:29.591Z,97331.69
2022-12-14T02:49:04.679Z,97326.22
2022-12-14T02:51:46.103Z,97328.69
2022-12-14T02:54:20.963Z,97310.66
2022-12-14T02:56:53.247Z,97312.44
2022-12-14T02:59:22.551Z,97308.47
2022-12-14T03:01:53.690Z,97313.28
2022-12-14T03:04:21.808Z,97312.59
2022-12-14T03:07:00.432Z,97302.50
2022-12-14T03:09:30.865Z,97292.16
2022-12-14T03:12:03.975Z,97286.69
2022-12-14T03:14:36.000Z,97295.06
2022-12-14T03:17:15.191Z,97296.72
2022-12-14T03:19:50.088Z,97292.13
2022-12-14T03:22:22.625Z,97284.41
2022-12-14T03:24:55.495Z,97284.72
2022-12-14T03:27:31.248Z,97284.84
2022-12-14T03:30:01.873Z,97286.25
2022-12-14T03:32:33.345Z,97284.28
2022-12-14T03:35:04.679Z,97285.53
2022-12-14T03:37:40.786Z,97277.97
2022-12-14T03:40:12.351Z,97274.44
2022-12-14T03:42:49.418Z,97277.47
2022-12-14T03:45:21.613Z,97267.53
2022-12-14T03:48:01.183Z,97267.25
2022-12-14T03:50:36.041Z,97264.78
2022-12-14T03:53:10.989Z,97259.00
2022-12-14T03:55:49.589Z,97254.41
2022-12-14T03:58:31.362Z,97247.66
2022-12-14T04:01:06.026Z,97250.16
2022-12-14T04:03:46.572Z,97243.34
2022-12-14T04:06:26.637Z,97233.13
2022-12-14T04:09:03.723Z,97231.38
2022-12-14T04:11:54.092Z,97223.75
2022-12-14T04:14:43.718Z,97218.72
2022-12-14T04:17:32.770Z,97213.38
2022-12-14T04:20:07.007Z,97205.63
2022-12-14T04:22:42.729Z,97212.41
2022-12-14T04:25:33.660Z,97213.31
2022-12-14T04:28:06.832Z,97203.47
2022-12-14T04:30:39.033Z,97215.16
2022-12-14T04:33:24.524Z,97196.91
2022-12-14T04:35:57.074Z,97188.38
2022-12-14T04:38:28.722Z,97182.34
2022-12-14T04:40:59.918Z,97189.25
2022-12-14T04:43:31.051Z,97189.06
2022-12-14T04:46:03.250Z,97184.53
2022-12-14T04:48:38.877Z,97201.47
2022-12-14T04:51:13.393Z,97203.13
2022-12-14T04:53:45.617Z,97195.09
2022-12-14T04:56:20.520Z,97185.06
2022-12-14T04:58:48.517Z,97187.63
2022-12-14T05:01:31.248Z,97183.09
2022-12-14T05:04:09.615Z,97175.13
2022-12-14T05:06:49.911Z,97162.06
2022-12-14T05:09:25.021Z,97167.50
2022-12-14T05:11:57.581Z,97165.94
2022-12-14T05:14:37.609Z,97167.59
2022-12-14T05:17:09.116Z,97175.00
2022-12-14T05:19:37.763Z,97175.84
2022-12-14T05:22:09.371Z,97168.53
2022-12-14T05:24:37.354Z,97159.03
2022-12-14T05:27:05.394Z,97165.66
2022-12-14T05:29:33.420Z,97169.63
2022-12-14T05:32:01.944Z,97161.16
2022-12-14T05:34:30.768Z,97156.47
2022-12-14T05:36:59.229Z,97143.56
2022-12-14T05:39:30.901Z,97157.22
2022-12-14T05:42:02.142Z,97155.38
2022-12-14T05:44:35.845Z,97156.88
2022-12-14T05:47:03.778Z,97160.28
2022-12-14T05:54:12.281Z,97129.09
2022-12-14T05:56:41.560Z,97131.25
2022-12-14T05:59:13.339Z,97122.63
2022-12-14T06:01:41.276Z,97112.56
2022-12-14T06:04:09.689Z,97112.91
2022-12-14T06:06:50.270Z,97120.53
2022-12-14T06:09:43.688Z,97123.88
2022-12-14T06:12:17.329Z,97125.19
2022-12-14T06:14:45.203Z,97120.44
2022-12-14T06:17:13.166Z,97129.53
2022-12-14T06:19:49.917Z,97125.28
2022-12-14T06:22:18.893Z,97127.16
2022-12-14T06:24:46.915Z,97117.69
2022-12-14T06:27:14.870Z,97115.00
2022-12-14T06:29:46.603Z,97125.72
2022-12-14T06:32:38.056Z,97119.72
2022-12-14T06:35:07.033Z,97117.59
2022-12-14T06:37:34.838Z,97109.47
2022-12-14T06:40:03.240Z,97098.75
2022-12-14T06:42:31.101Z,97096.31
2022-12-14T06:45:00.360Z,97110.59
2022-12-14T06:47:28.413Z,97098.81
2022-12-14T06:50:02.490Z,97098.28
2022-12-14T06:52:30.294Z,97090.56
2022-12-14T06:54:58.127Z,97083.03
2022-12-14T06:57:26.020Z,97083.53
2022-12-14T06:59:54.924Z,97081.00
2022-12-14T07:02:24.248Z,97066.25
2022-12-14T07:04:52.275Z,97075.31
2022-12-14T07:07:22.895Z,97057.50
2022-12-14T07:09:51.265Z,97058.47
2022-12-14T07:12:19.139Z,97063.06
2022-12-14T07:14:49.633Z,97058.72
2022-12-14T07:17:28.803Z,97064.03
2022-12-14T07:19:56.706Z,97060.06
2022-12-14T07:22:25.355Z,97056.91
2022-12-14T07:24:54.853Z,97045.16
2022-12-14T07:27:25.761Z,97052.06
2022-12-14T07:29:54.173Z,97042.16
2022-12-14T07:32:22.006Z,97042.97
2022-12-14T07:34:51.176Z,97043.19
2022-12-14T07:37:19.032Z,97052.00
2022-12-14T07:39:46.985Z,97042.72
2022-12-14T07:42:14.849Z,97039.22
2022-12-14T07:44:50.756Z,97044.69
2022-12-14T07:47:20.239Z,97041.28
2022-12-14T07:49:48.368Z,97038.31
2022-12-14T07:52:19.379Z,97036.16
2022-12-14T07:54:47.307Z,97025.50
2022-12-14T07:57:17.483Z,97020.91
2022-12-14T07:59:47.392Z,97013.50
2022-12-14T08:02:18.060Z,97009.44
2022-12-14T08:04:46.552Z,97012.66
2022-12-14T08:07:14.461Z,97010.50
2022-12-14T08:09:43.818Z,97014.69
2022-12-14T08:12:13.480Z,97017.22
2022-12-14T08:14:41.746Z,97004.50
2022-12-14T08:17:11.937Z,97010.28
2022-12-14T08:19:39.970Z,97014.09
2022-12-14T08:22:08.222Z,97011.56
2022-12-14T08:24:39.720Z,97014.94
2022-12-14T08:27:09.582Z,97003.28
2022-12-14T08:29:37.745Z,97011.13
2022-12-14T08:32:06.401Z,97004.56
2022-12-14T08:34:37.838Z,97006.81
2022-12-14T08:37:18.214Z,97011.34
2022-12-14T08:40:51.440Z,96997.53
2022-12-14T08:43:47.660Z,97012.53
2022-12-14T08:46:15.545Z,97031.41
2022-12-14T08:48:43.579Z,97029.25
2022-12-14T08:51:18.214Z,97019.38
2022-12-14T08:53:48.671Z,97013.81
2022-12-14T08:56:18.737Z,97000.00
2022-12-14T08:58:48.522Z,97007.69
2022-12-14T09:01:20.923Z,97018.00
2022-12-14T09:03:49.554Z,97015.31
2022-12-14T09:06:20.079Z,97015.34
2022-12-14T09:09:22.742Z,97008.41
2022-12-14T09:11:58.256Z,97016.88
2022-12-14T09:14:27.536Z,97008.13
2022-12-14T09:16:58.401Z,97012.63
2022-12-14T09:19:45.781Z,97012.13
2022-12-14T09:22:29.767Z,96996.22
2022-12-14T09:25:45.973Z,96993.25
2022-12-14T09:28:17.452Z,96984.34
2022-12-14T09:31:25.957Z,96992.56
2022-12-14T09:34:02.191Z,96987.13
2022-12-14T09:36:30.089Z,96984.22
2022-12-14T09:38:59.533Z,96987.94
2022-12-14T09:41:50.927Z,96980.53
2022-12-14T09:44:27.934Z,96975.03
2022-12-14T09:47:20.459Z,96971.72
2022-12-14T09:49:56.107Z,96986.94
2022-12-14T09:52:30.867Z,96987.50
2022-12-14T09:54:59.919Z,96989.25
2022-12-14T09:57:38.838Z,96981.91
2022-12-14T10:00:23.079Z,96988.94
2022-12-14T10:03:35.425Z,96981.63
2022-12-14T10:06:44.728Z,96990.53
2022-12-14T10:09:44.715Z,96991.13
2022-12-14T10:12:34.042Z,96991.25
2022-12-14T10:15:15.807Z,96982.94
2022-12-14T10:18:33.890Z,96980.31
2022-12-14T10:21:06.442Z,96976.84
2022-12-14T10:23:36.668Z,96974.84
2022-12-14T10:26:08.983Z,96969.72
2022-12-14T10:28:46.695Z,96969.63
2022-12-14T10:31:18.466Z,96964.50
2022-12-14T10:33:47.985Z,96962.56
2022-12-14T10:36:24.348Z,96960.94
2022-12-14T10:38:59.631Z,96956.84
2022-12-14T10:41:39.582Z,96956.66
2022-12-14T10:44:18.787Z,96955.13
2022-12-14T10:46:59.230Z,96948.09
2022-12-14T10:49:34.385Z,96930.28
2022-12-14T10:52:05.236Z,96928.03
2022-12-14T10:54:40.112Z,96932.22
2022-12-14T10:57:08.229Z,96942.84
2022-12-14T10:59:55.590Z,96943.06
2022-12-14T11:02:39.248Z,96945.25
2022-12-14T11:05:31.092Z,96947.94
2022-12-14T11:08:02.253Z,96949.56
2022-12-14T11:10:34.708Z,96945.59
2022-12-14T11:13:05.770Z,96947.72
2022-12-14T11:15:36.980Z,96938.38
2022-12-14T11:18:09.250Z,96942.91
2022-12-14T11:20:37.254Z,96932.44
2022-12-14T11:23:10.407Z,96941.06
2022-12-14T11:25:43.570Z,96938.19
2022-12-14T11:28:36.162Z,96945.41
2022-12-14T11:31:07.237Z,96941.94
2022-12-14T11:33:39.264Z,96948.56
2022-12-14T11:36:08.589Z,96941.53
2022-12-14T11:38:36.920Z,96940.09
2022-12-14T11:41:11.596Z,96940.38
2022-12-14T11:43:40.246Z,96932.00
2022-12-14T11:46:08.802Z,96926.41
2022-12-14T11:48:50.993Z,96927.31
2022-12-14T11:51:19.072Z,96930.09
2022-12-14T11:54:02.600Z,96938.25
2022-12-14T11:56:32.035Z,96937.38
2022-12-14T11:59:00.081Z,96940.59
2022-12-14T12:01:28.327Z,96924.16
2022-12-14T12:03:59.411Z,96926.69
2022-12-14T12:06:30.236Z,96927.50
2022-12-14T12:09:01.629Z,96930.09
2022-12-14T12:11:34.635Z,96932.16
2022-12-14T12:14:07.832Z,96933.97
2022-12-14T12:16:40.215Z,96925.66
2022-12-14T12:19:13.511Z,96931.31
2022-12-14T12:21:45.079Z,96939.94
2022-12-14T12:24:21.727Z,96938.81
2022-12-14T12:26:53.141Z,96935.94
2022-12-14T12:29:26.848Z,96936.00
2022-12-14T12:31:59.748Z,96937.81
2022-12-14T12:34:32.214Z,96940.88
2022-12-14T12:40:02.761Z,96952.53
2022-12-14T12:42:42.960Z,96945.41
2022-12-14T12:45:21.730Z,96933.22
2022-12-14T12:47:56.889Z,96941.72
2022-12-14T12:50:29.876Z,96945.25
2022-12-14T12:53:03.946Z,96946.31
2022-12-14T12:55:37.827Z,96948.03
2022-12-14T12:58:14.666Z,96956.25
2022-12-14T13:00:49.421Z,96960.09
2022-12-14T13:03:24.432Z,96957.91
2022-12-14T13:05:55.533Z,96966.06
2022-12-14T13:08:31.364Z,96983.25
2022-12-14T13:11:25.122Z,96981.00
2022-12-14T13:13:56.776Z,96982.28
2022-12-14T13:16:34.588Z,96983.09
2022-12-14T13:19:49.621Z,96981.19
2022-12-14T13:22:28.844Z,96988.38
2022-12-14T13:25:07.493Z,96982.84
2022-12-14T13:28:09.661Z,96976.13
2022-12-14T13:31:07.618Z,96981.91
2022-12-14T13:33:58.283Z,96978.56
2022-12-14T13:37:14.324Z,96968.31
2022-12-14T13:40:00.010Z,96971.59
2022-12-14T13:42:52.029Z,96976.44
2022-12-14T13:45:49.681Z,96988.78
2022-12-14T13:48:42.835Z,96992.31
2022-12-14T13:52:14.828Z,96990.97
2022-12-14T13:54:48.063Z,96996.53
2022-12-14T13:57:26.240Z,97002.75
2022-12-14T14:03:55.345Z,97013.81
2022-12-14T14:06:41.738Z,97013.72
2022-12-14T14:09:50.305Z,97024.97
2022-12-14T14:12:39.078Z,97023.91
2022-12-14T14:16:26.264Z,97019.41
2022-12-14T14:19:17.676Z,97023.16
2022-12-14T14:22:25.125Z,97027.03
2022-12-14T14:24:59.456Z,97034.56
2022-12-14T14:27:38.634Z,97031.13
2022-12-14T14:30:25.855Z,97042.28
2022-12-14T14:33:07.519Z,97040.50
2022-12-14T14:35:42.932Z,97042.91
2022-12-14T14:38:24.501Z,97046.91
2022-12-14T14:43:55.774Z,97057.63
2022-12-14T14:46:35.665Z,97065.44
2022-12-14T14:49:05.075Z,97066.50
2022-12-14T14:51:37.513Z,97070.72
2022-12-14T15:01:45.795Z,97097.03
2022-12-14T15:04:41.573Z,97105.75
2022-12-14T15:07:16.560Z,97108.38
2022-12-14T15:09:49.125Z,97115.22
2022-12-14T15:12:29.865Z,97124.56
2022-12-14T15:15:02.313Z,97125.34
2022-12-14T15:17:30.282Z,97139.38
2022-12-14T15:20:00.106Z,97141.91
2022-12-14T15:22:32.211Z,97146.88
2022-12-14T15:25:01.978Z,97154.31
2022-12-14T15:27:35.173Z,97154.66
2022-12-14T15:30:07.048Z,97156.81
2022-12-14T15:32:35.077Z,97165.22
2022-12-14T15:35:05.837Z,97164.22
2022-12-14T15:37:41.781Z,97174.34
2022-12-14T15:40:15.159Z,97181.94
2022-12-14T15:42:48.079Z,97180.75
2022-12-14T15:45:18.956Z,97179.34
2022-12-14T15:47:50.005Z,97181.59
2022-12-14T15:50:23.710Z,97174.81
2022-12-14T15:52:56.535Z,97186.47
2022-12-14T15:55:31.003Z,97199.34
2022-12-14T15:58:01.448Z,97219.66
2022-12-14T16:00:29.635Z,97217.72
2022-12-14T16:02:58.082Z,97217.72
2022-12-14T16:05:26.494Z,97220.72
2022-12-14T16:08:04.456Z,97216.13
2022-12-14T16:10:33.913Z,97221.88
2022-12-14T16:13:10.634Z,97226.75
2022-12-14T16:15:38.705Z,97220.50
2022-12-14T16:18:06.838Z,97219.19
2022-12-14T16:20:38.326Z,97228.13
2022-12-14T16:23:27.719Z,97233.47
2022-12-14T16:25:59.369Z,97228.28
2022-12-14T16:28:31.229Z,97240.50
2022-12-14T16:31:02.711Z,97238.41
2022-12-14T16:33:41.024Z,97235.69
2022-12-14T16:36:16.033Z,97226.25
2022-12-14T16:39:02.141Z,97240.66
2022-12-14T16:41:36.335Z,97252.06
2022-12-14T16:44:06.822Z,97261.44
2022-12-14T16:46:49.719Z,97269.16
2022-12-14T16:49:42.807Z,97271.38
2022-12-14T16:52:21.057Z,97265.31
2022-12-14T16:55:09.733Z,97259.41
2022-12-14T16:57:41.065Z,97266.66
2022-12-14T17:00:23.242Z,97270.53
2022-12-14T17:02:57.801Z,97265.13
2022-12-14T17:05:29.932Z,97277.69
2022-12-14T17:07:57.908Z,97274.03
2022-12-14T17:10:28.276Z,97280.16
2022-12-14T17:12:57.631Z,97288.03
2022-12-14T17:15:27.422Z,97293.97
2022-12-14T17:17:57.756Z,97300.19
2022-12-14T17:20:30.108Z,97306.41
2022-12-14T17:23:01.834Z,97298.09
2022-12-14T17:25:33.231Z,97301.22
2022-12-14T17:28:01.775Z,97302.78
2022-12-14T17:30:29.889Z,97301.38
2022-12-14T17:32:58.891Z,97301.72
2022-12-14T17:35:29.700Z,97300.69
2022-12-14T17:37:58.149Z,97300.03
2022-12-14T17:40:28.960Z,97300.94
2022-12-14T17:42:59.474Z,97312.78
2022-12-14T17:45:31.110Z,97313.94
2022-12-14T17:47:59.354Z,97315.44
2022-12-14T17:50:27.310Z,97325.16
2022-12-14T17:52:55.299Z,97313.44
2022-12-14T17:55:25.652Z,97319.97
2022-12-14T17:57:54.265Z,97312.91
2022-12-14T18:00:43.419Z,97317.13
2022-12-14T18:03:12.844Z,97318.97
2022-12-14T18:05:48.032Z,97324.16
2022-12-14T18:08:16.852Z,97331.22
2022-12-14T18:10:45.252Z,97336.75
2022-12-14T18:13:14.104Z,97336.41
2022-12-14T18:15:49.668Z,97339.53
2022-12-14T18:18:18.486Z,97349.50
2022-12-14T18:20:50.596Z,97355.56
2022-12-14T18:23:19.340Z,97351.06
2022-12-14T18:25:49.121Z,97348.47
2022-12-14T18:28:17.393Z,97355.53
2022-12-14T18:30:50.750Z,97343.72
2022-12-14T18:33:21.017Z,97336.88
2022-12-14T18:35:50.261Z,97346.38
2022-12-14T18:38:18.321Z,97345.28
2022-12-14T18:40:49.675Z,97349.41
2022-12-14T18:43:20.368Z,97344.53
2022-12-14T18:45:51.343Z,97352.94
2022-12-14T18:48:19.602Z,97344.28
2022-12-14T18:50:50.571Z,97342.75
2022-12-14T18:53:20.865Z,97348.25
2022-12-14T18:55:49.741Z,97359.03
2022-12-14T18:58:20.220Z,97372.63
2022-12-14T19:00:52.224Z,97376.69
2022-12-14T19:03:20.729Z,97373.03
2022-12-14T19:05:49.035Z,97371.91
2022-12-14T19:08:19.205Z,97380.56
2022-12-14T19:10:48.863Z,97377.53
2022-12-14T19:13:25.766Z,97384.72
2022-12-14T19:15:55.873Z,97385.03
2022-12-14T19:18:23.879Z,97385.09
2022-12-14T19:20:51.725Z,97387.50
2022-12-14T19:23:21.903Z,97385.31
2022-12-14T19:25:49.889Z,97391.56
2022-12-14T19:28:32.144Z,97385.50
2022-12-14T19:31:05.296Z,97380.50
2022-12-14T19:33:33.857Z,97385.66
2022-12-14T19:36:05.921Z,97384.19
2022-12-14T19:38:35.669Z,97385.97
2022-12-14T19:41:06.342Z,97390.72
2022-12-14T19:43:35.544Z,97391.44
2022-12-14T19:46:09.160Z,97391.00
2022-12-14T19:48:37.875Z,97396.31
2022-12-14T19:51:06.910Z,97395.34
2022-12-14T19:53:36.052Z,97397.94
2022-12-14T19:56:05.725Z,97400.56
2022-12-14T19:58:34.060Z,97405.09
2022-12-14T20:01:03.073Z,97409.63
2022-12-14T20:03:33.001Z,97406.91
2022-12-14T20:06:01.214Z,97401.09
2022-12-14T20:08:32.605Z,97400.97
2022-12-14T20:11:05.655Z,97405.94
2022-12-14T20:13:36.156Z,97406.88
2022-12-14T20:16:04.332Z,97409.50
2022-12-14T20:18:33.765Z,97407.19
2022-12-14T20:21:03.427Z,97417.38
2022-12-14T20:23:33.612Z,97428.44
2022-12-14T20:26:02.206Z,97432.22
2022-12-14T20:28:30.694Z,97426.56
2022-12-14T20:30:58.638Z,97432.34
2022-12-14T20:33:30.538Z,97439.44
2022-12-14T20:36:00.338Z,97443.03
2022-12-14T20:38:28.682Z,97432.13
2022-12-14T20:40:56.627Z,97444.63
2022-12-14T20:43:24.551Z,97442.63
2022-12-14T20:45:54.827Z,97448.03
2022-12-14T20:48:22.733Z,97452.78
2022-12-14T20:50:54.983Z,97452.31
2022-12-14T20:53:27.325Z,97449.00
2022-12-14T20:55:55.288Z,97444.59
2022-12-14T20:58:23.598Z,97451.06
2022-12-14T21:00:51.551Z,97440.63
2022-12-14T21:03:19.590Z,97434.34
2022-12-14T21:05:47.623Z,97441.84
2022-12-14T21:08:15.762Z,97438.72
2022-12-14T21:10:44.969Z,97441.75
2022-12-14T21:13:11.840Z,97438.28
2022-12-14T21:15:39.833Z,97436.47
2022-12-14T21:18:07.704Z,97442.59
2022-12-14T21:20:35.685Z,97435.84
2022-12-14T21:23:03.572Z,97443.41
2022-12-14T21:25:31.455Z,97447.41
2022-12-14T21:28:00.778Z,97443.69
2022-12-14T21:30:28.800Z,97448.00
2022-12-14T21:32:56.730Z,97450.75
2022-12-14T21:35:24.773Z,97455.09
2022-12-14T21:37:52.537Z,97457.78
2022-12-14T21:40:34.295Z,97461.69
2022-12-14T21:43:04.631Z,97465.59
2022-12-14T21:45:32.742Z,97467.75
2022-12-14T21:48:00.601Z,97471.25
2022-12-14T21:50:28.524Z,97463.44
2022-12-14T21:52:56.464Z,97462.69
2022-12-14T21:55:24.495Z,97465.28
2022-12-14T21:58:09.662Z,97466.44
2022-12-14T22:00:39.964Z,97469.91
2022-12-14T22:03:08.176Z,97466.69
2022-12-14T22:05:38.845Z,97451.84
2022-12-14T22:08:06.854Z,97465.00
2022-12-14T22:10:34.809Z,97471.53
2022-12-14T22:13:02.780Z,97478.13
2022-12-14T22:15:30.648Z,97472.84
2022-12-14T22:18:00.093Z,97475.38
2022-12-14T22:20:27.986Z,97467.59
2022-12-14T22:22:56.103Z,97473.63
2022-12-14T22:25:23.992Z,97481.19
2022-12-14T22:27:54.067Z,97482.88
2022-12-14T22:30:23.279Z,97475.69
2022-12-14T22:32:53.884Z,97475.53
2022-12-14T22:35:23.146Z,97470.66
2022-12-14T22:37:51.036Z,97464.00
2022-12-14T22:40:18.894Z,97463.59
2022-12-14T22:42:46.679Z,97467.59
2022-12-14T22:45:14.748Z,97461.97
2022-12-14T22:47:42.644Z,97470.53
2022-12-14T22:50:13.014Z,97467.28
2022-12-14T22:52:42.352Z,97470.50
2022-12-14T22:55:11.284Z,97468.66
2022-12-14T22:57:44.312Z,97468.91
2022-12-14T23:00:16.717Z,97478.56
2022-12-14T23:02:48.292Z,97483.78
2022-12-14T23:05:17.568Z,97479.50
2022-12-14T23:07:47.451Z,97487.94
2022-12-14T23:10:33.273Z,97487.28
2022-12-14T23:13:18.625Z,97483.38
2022-12-14T23:16:04.016Z,97487.94
2022-12-14T23:18:49.488Z,97486.84
2022-12-14T23:21:35.313Z,97488.06
2022-12-14T23:24:22.690Z,97491.41
2022-12-14T23:27:09.885Z,97501.19
2022-12-14T23:29:55.938Z,97498.28
2022-12-14T23:32:41.813Z,97500.72
2022-12-14T23:35:27.648Z,97499.81
2022-12-14T23:38:13.150Z,97491.72
2022-12-14T23:40:59.779Z,97493.34
2022-12-14T23:43:45.100Z,97492.47
2022-12-14T23:46:33.608Z,97490.19
2022-12-14T23:49:18.847Z,97487.13
2022-12-14T23:52:04.568Z,97486.22
2022-12-14T23:54:50.391Z,97485.84
2022-12-14T23:57:37.135Z,97495.63
